Blossvale, NY (13308)

3:11 PM EDT on August 28, 2015 (GMT -0400)
Upper Southbay on Oneida Lake, NY | | Change Station
CLOSE
Current Station
Personal Weather Station
Location: Canastota, NY
Elevation: 384 ft
Nearby Weather Stations

Elev 384 ft 43.16 °N, 75.75 °W | Updated 2 minutes ago

Partly Cloudy
Partly Cloudy
78.1 °F
Feels Like 80 °F
N
1.7
Wind Variable Wind from NNW

Today
High -- | Low -- °F
--% Chance of Precip.
Yesterday
High -- | Low -- °F
Precip. -- in
6:22 AM 7:44 PM
Waxing Gibbous, 99% visible
Pressure 30.19 in
Visibility 10.0 miles
Clouds Few 4200 ft
Overcast 5500 ft
Heat Index 80 °F
Dew Point 63 °F
Humidity 59%
Rainfall 0.00 in
Snow Depth Not available.
UV 2 out of 12
Pollen 9.00 out of 12
Air Quality Not available.
Flu Activity Not available.
METAR KRME 281853Z 28006KT 10SM FEW042 OVC055 22/12 A3019 RMK AO2 SLP221 T02170122
Pressure 30.19 in
Visibility 10.0 miles
Clouds Few 4200 ft
Overcast 5500 ft
Heat Index 80 °F
Dew Point 63 °F
Humidity 59%
Rainfall 0.00 in
Snow Depth Not available.
UV 2 out of 12
Pollen 9.00 out of 12
Air Quality Not available.
Flu Activity Not available.
METAR KRME 281853Z 28006KT 10SM FEW042 OVC055 22/12 A3019 RMK AO2 SLP221 T02170122

10-Day Weather Forecast

×

Almanac

Astronomy

Aug. 28, 2015 Rise Set
Actual Time
Civil Twilight
Nautical Twilight
Astronomical Twilight
Moon
Length of Visible Light
Length of Day
Tomorrow will be .
, % of the Moon is Illuminated

Today's Extremes

State Highs State Lows

Community

WunderPhotos

Upload Photos

1,850,460 photos uploaded!

WunderBlogs® & News

Nearby

Air Quality

  Air Quality AQ Index Pollutant
Not available.

Snow Depth

Station Depth Elevation

Earthquake Activity

City Distance Mag. Time & Date
Minimum magnitude displayed is 2.5.

Coastal Water Temperatures

Place Temperature

Stations

Nearby Weather Stations

Station Location Temp. Windchill Dew Point Humidity Wind Precip. Elev Updated Type